Wilsonburg, West Virginia
Current Conditions -  °F | °C
As of 3:53 AM on Wednesday 26 Nov 2014 (Local Time) from KCKB Reporting Station
Overcast Overcast  
Wind Chill: 35°   Ceiling: 11000
Heat Index: 35°   Visibility: 10mi
Dew Point: 28°   Wind: 3mph
Humidity: 76%   Direction: 50°NE
Pressure: 30.04"   Gusts: NA
Location:  39.29°N, 80.4°W
Report Text: KCKB 260853Z AUTO 05003KT 10SM OVC110 02/M02 A3004 RMK AO2 SLP174 T00171022 58032 TSNO
Loading
Personal Weather Stations






























Interactive Weather Map New forecast layout! Learn more

10-Day Weather Forecast

Advertisements
Track Severe Weather on mobile